createdAt,value
2018-02-01T00:00:02.762Z,992.88
2018-02-01T00:01:55.759Z,992.91
2018-02-01T00:02:55.791Z,992.94
2018-02-01T00:04:48.772Z,992.96
2018-02-01T00:05:48.822Z,992.95
2018-02-01T00:07:41.825Z,992.98
2018-02-01T00:08:41.856Z,992.93
2018-02-01T00:10:34.869Z,992.93
2018-02-01T00:11:34.887Z,992.95
2018-02-01T00:13:27.863Z,992.94
2018-02-01T00:14:27.914Z,992.92
2018-02-01T00:16:20.911Z,992.92
2018-02-01T00:17:20.946Z,992.90
2018-02-01T00:19:13.952Z,992.91
2018-02-01T00:20:13.975Z,992.94
2018-02-01T00:22:06.971Z,992.95
2018-02-01T00:23:07.004Z,992.90
2018-02-01T00:24:59.980Z,992.95
2018-02-01T00:26:00.035Z,992.92
2018-02-01T00:27:53.035Z,992.93
2018-02-01T00:28:53.064Z,992.95
2018-02-01T00:30:46.043Z,992.94
2018-02-01T00:31:46.110Z,992.97
2018-02-01T00:33:39.092Z,992.94
2018-02-01T00:34:39.126Z,992.92
2018-02-01T00:36:32.100Z,992.97
2018-02-01T00:37:32.153Z,992.91
2018-02-01T00:39:25.156Z,992.97
2018-02-01T00:40:25.183Z,992.95
2018-02-01T00:42:18.162Z,992.93
2018-02-01T00:43:18.214Z,992.98
2018-02-01T00:45:11.214Z,992.95
2018-02-01T00:46:11.243Z,993.01
2018-02-01T00:48:04.265Z,992.94
2018-02-01T00:49:04.282Z,992.98
2018-02-01T00:50:57.257Z,992.98
2018-02-01T00:51:57.310Z,992.97
2018-02-01T00:53:50.309Z,992.90
2018-02-01T00:54:50.343Z,992.89
2018-02-01T00:56:43.316Z,992.88
2018-02-01T00:57:43.370Z,992.96
2018-02-01T00:59:36.380Z,992.96
2018-02-01T01:00:36.425Z,992.96
2018-02-01T01:02:29.388Z,992.95
2018-02-01T01:03:29.443Z,992.95
2018-02-01T01:05:22.439Z,992.93
2018-02-01T01:06:22.478Z,992.94
2018-02-01T01:08:15.445Z,992.96
2018-02-01T01:09:15.501Z,992.97
2018-02-01T01:11:08.500Z,992.91
2018-02-01T01:12:08.532Z,992.95
2018-02-01T01:14:01.528Z,992.92
2018-02-01T01:15:01.568Z,992.92
2018-02-01T01:16:54.535Z,992.97
2018-02-01T01:17:54.589Z,992.92
2018-02-01T01:19:47.589Z,992.96
2018-02-01T01:20:47.617Z,993.03
2018-02-01T01:22:40.591Z,993.00
2018-02-01T01:23:40.647Z,993.08
2018-02-01T01:25:33.649Z,993.03
2018-02-01T01:26:33.691Z,993.09
2018-02-01T01:28:26.653Z,993.07
2018-02-01T01:29:26.705Z,993.10
2018-02-01T01:31:19.731Z,993.06
2018-02-01T01:32:19.733Z,993.08
2018-02-01T01:34:12.710Z,993.03
2018-02-01T01:35:12.766Z,993.00
2018-02-01T01:37:05.764Z,992.95
2018-02-01T01:38:05.798Z,992.97
2018-02-01T01:39:58.817Z,992.96
2018-02-01T01:40:58.827Z,993.04
2018-02-01T01:42:51.808Z,993.02
2018-02-01T01:43:51.865Z,992.97
2018-02-01T01:45:44.860Z,993.00
2018-02-01T01:46:44.946Z,992.94
2018-02-01T01:48:37.871Z,992.95
2018-02-01T01:49:37.924Z,992.93
2018-02-01T01:51:30.920Z,992.92
2018-02-01T01:52:30.952Z,992.91
2018-02-01T01:54:23.928Z,992.91
2018-02-01T01:55:23.983Z,992.85
2018-02-01T01:57:16.986Z,992.84
2018-02-01T01:58:17.011Z,992.84
2018-02-01T02:00:09.985Z,992.83
2018-02-01T02:01:10.066Z,992.84
2018-02-01T02:03:03.035Z,992.79
2018-02-01T02:04:03.067Z,992.75
2018-02-01T02:05:56.080Z,992.74
2018-02-01T02:06:56.097Z,992.74
2018-02-01T02:08:49.072Z,992.72
2018-02-01T02:09:49.127Z,992.70
2018-02-01T02:11:42.127Z,992.66
2018-02-01T02:12:42.159Z,992.69
2018-02-01T02:14:35.135Z,992.67
2018-02-01T02:15:35.187Z,992.69
2018-02-01T02:17:28.182Z,992.66
2018-02-01T02:18:28.216Z,992.70
2018-02-01T02:20:21.702Z,992.66
2018-02-01T02:21:21.751Z,992.64
2018-02-01T02:23:14.744Z,992.61
2018-02-01T02:24:14.779Z,992.67
2018-02-01T02:26:07.764Z,992.55
2018-02-01T02:27:07.815Z,992.57
2018-02-01T02:29:00.813Z,992.50
2018-02-01T02:30:00.847Z,992.55
2018-02-01T02:31:53.824Z,992.51
2018-02-01T02:32:53.876Z,992.46
2018-02-01T02:34:46.873Z,992.50
2018-02-01T02:35:46.905Z,992.48
2018-02-01T02:37:39.880Z,992.49
2018-02-01T02:38:39.935Z,992.43
2018-02-01T02:40:32.937Z,992.41
2018-02-01T02:41:32.969Z,992.41
2018-02-01T02:43:25.988Z,992.38
2018-02-01T02:44:26.004Z,992.41
2018-02-01T02:46:18.975Z,992.40
2018-02-01T02:47:19.055Z,992.38
2018-02-01T02:49:12.033Z,992.39
2018-02-01T02:50:12.067Z,992.40
2018-02-01T02:52:05.050Z,992.39
2018-02-01T02:53:05.098Z,992.37
2018-02-01T02:54:58.089Z,992.35
2018-02-01T02:55:58.121Z,992.37
2018-02-01T02:57:51.095Z,992.35
2018-02-01T02:58:51.150Z,992.34
2018-02-01T03:00:44.144Z,992.33
2018-02-01T03:01:44.177Z,992.34
2018-02-01T03:03:37.153Z,992.36
2018-02-01T03:04:37.210Z,992.32
2018-02-01T03:06:30.206Z,992.33
2018-02-01T03:07:30.239Z,992.32
2018-02-01T03:09:23.234Z,992.36
2018-02-01T03:10:23.266Z,992.36
2018-02-01T03:12:16.238Z,992.33
2018-02-01T03:13:16.293Z,992.31
2018-02-01T03:15:09.291Z,992.32
2018-02-01T03:16:09.323Z,992.33
2018-02-01T03:18:02.298Z,992.33
2018-02-01T03:19:02.355Z,992.32
2018-02-01T03:20:55.859Z,992.36
2018-02-01T03:21:55.889Z,992.42
2018-02-01T03:23:48.865Z,992.40
2018-02-01T03:24:48.919Z,992.41
2018-02-01T03:26:41.912Z,992.41
2018-02-01T03:27:41.948Z,992.43
2018-02-01T03:29:34.923Z,992.43
2018-02-01T03:30:34.977Z,992.39
2018-02-01T03:32:27.973Z,992.40
2018-02-01T03:33:28.006Z,992.38
2018-02-01T03:35:20.987Z,992.36
2018-02-01T03:36:21.036Z,992.38
2018-02-01T03:38:14.030Z,992.39
2018-02-01T03:39:14.063Z,992.40
2018-02-01T03:41:07.062Z,992.39
2018-02-01T03:42:07.098Z,992.40
2018-02-01T03:44:00.071Z,992.35
2018-02-01T03:45:00.125Z,992.37
2018-02-01T03:46:53.117Z,992.39
2018-02-01T03:47:53.153Z,992.38
2018-02-01T03:49:46.167Z,992.43
2018-02-01T03:50:46.179Z,992.44
2018-02-01T03:52:39.179Z,992.44
2018-02-01T03:53:39.207Z,992.48
2018-02-01T03:55:32.184Z,992.50
2018-02-01T03:56:32.241Z,992.46
2018-02-01T03:58:25.232Z,992.51
2018-02-01T03:59:25.267Z,992.46
2018-02-01T04:01:18.247Z,992.49
2018-02-01T04:02:18.296Z,992.52
2018-02-01T04:04:11.290Z,992.49
2018-02-01T04:05:11.324Z,992.49
2018-02-01T04:07:04.319Z,992.46
2018-02-01T04:08:04.382Z,992.47
2018-02-01T04:09:57.325Z,992.51
2018-02-01T04:10:57.380Z,992.46
2018-02-01T04:12:50.373Z,992.47
2018-02-01T04:13:50.407Z,992.45
2018-02-01T04:15:43.380Z,992.46
2018-02-01T04:16:43.437Z,992.47
2018-02-01T04:18:36.432Z,992.46
2018-02-01T04:19:36.463Z,992.41
2018-02-01T04:21:29.436Z,992.50
2018-02-01T04:22:29.613Z,992.47
2018-02-01T04:24:22.485Z,992.52
2018-02-01T04:25:22.518Z,992.48
2018-02-01T04:27:15.492Z,992.44
2018-02-01T04:28:15.547Z,992.45
2018-02-01T04:30:08.546Z,992.41
2018-02-01T04:31:08.596Z,992.39
2018-02-01T04:33:01.548Z,992.39
2018-02-01T04:34:01.602Z,992.43
2018-02-01T04:35:54.605Z,992.41
2018-02-01T04:36:54.635Z,992.41
2018-02-01T04:38:47.629Z,992.38
2018-02-01T04:39:47.662Z,992.40
2018-02-01T04:41:40.636Z,992.39
2018-02-01T04:42:40.690Z,992.38
2018-02-01T04:44:33.685Z,992.42
2018-02-01T04:45:33.718Z,992.40
2018-02-01T04:47:26.690Z,992.41
2018-02-01T04:48:26.745Z,992.43
2018-02-01T04:50:19.738Z,992.42
2018-02-01T04:51:19.772Z,992.42
2018-02-01T04:53:12.747Z,992.44
2018-02-01T04:54:12.802Z,992.40
2018-02-01T04:56:05.794Z,992.40
2018-02-01T04:57:05.829Z,992.39
2018-02-01T04:58:58.800Z,992.42
2018-02-01T04:59:58.854Z,992.36
2018-02-01T05:01:51.849Z,992.42
2018-02-01T05:02:51.886Z,992.43
2018-02-01T05:04:44.878Z,992.44
2018-02-01T05:05:44.912Z,992.44
2018-02-01T05:07:37.886Z,992.41
2018-02-01T05:08:37.939Z,992.39
2018-02-01T05:10:30.933Z,992.48
2018-02-01T05:11:30.967Z,992.49
2018-02-01T05:13:23.939Z,992.51
2018-02-01T05:14:23.994Z,992.52
2018-02-01T05:16:16.990Z,992.42
2018-02-01T05:17:17.023Z,992.41
2018-02-01T05:19:09.996Z,992.41
2018-02-01T05:20:10.051Z,992.44
2018-02-01T05:22:03.042Z,992.43
2018-02-01T05:23:03.076Z,992.44
2018-02-01T05:24:56.088Z,992.45
2018-02-01T05:25:56.102Z,992.38
2018-02-01T05:27:49.079Z,992.39
2018-02-01T05:28:49.131Z,992.33
2018-02-01T05:30:42.125Z,992.35
2018-02-01T05:31:42.158Z,992.38
2018-02-01T05:33:35.131Z,992.41
2018-02-01T05:34:35.185Z,992.41
2018-02-01T05:36:28.177Z,992.36
2018-02-01T05:37:28.210Z,992.34
2018-02-01T05:39:21.183Z,992.35
2018-02-01T05:40:21.237Z,992.37
2018-02-01T05:42:14.233Z,992.33
2018-02-01T05:43:14.265Z,992.33
2018-02-01T05:45:07.241Z,992.33
2018-02-01T05:46:07.294Z,992.39
2018-02-01T05:48:00.291Z,992.40
2018-02-01T05:49:00.321Z,992.42
2018-02-01T05:50:53.296Z,992.41
2018-02-01T05:51:53.350Z,992.37
2018-02-01T05:53:46.351Z,992.36
2018-02-01T05:54:46.382Z,992.38
2018-02-01T05:56:39.363Z,992.35
2018-02-01T05:57:39.414Z,992.36
2018-02-01T05:59:32.410Z,992.43
2018-02-01T06:00:32.443Z,992.44
2018-02-01T06:02:25.435Z,992.39
2018-02-01T06:03:25.468Z,992.39
2018-02-01T06:05:18.444Z,992.39
2018-02-01T06:06:18.497Z,992.39
2018-02-01T06:08:11.491Z,992.40
2018-02-01T06:09:11.527Z,992.40
2018-02-01T06:11:04.495Z,992.40
2018-02-01T06:12:04.551Z,992.43
2018-02-01T06:13:57.545Z,992.39
2018-02-01T06:14:57.575Z,992.41
2018-02-01T06:16:50.556Z,992.38
2018-02-01T06:17:50.610Z,992.37
2018-02-01T06:19:43.607Z,992.39
2018-02-01T06:20:43.638Z,992.43
2018-02-01T06:22:36.614Z,992.42
2018-02-01T06:23:36.669Z,992.45
2018-02-01T06:25:29.664Z,992.41
2018-02-01T06:26:29.693Z,992.38
2018-02-01T06:28:22.675Z,992.40
2018-02-01T06:29:22.718Z,992.37
2018-02-01T06:31:15.712Z,992.36
2018-02-01T06:32:15.746Z,992.38
2018-02-01T06:34:08.738Z,992.36
2018-02-01T06:35:08.770Z,992.34
2018-02-01T06:37:01.769Z,992.37
2018-02-01T06:38:01.824Z,992.38
2018-02-01T06:39:54.817Z,992.29
2018-02-01T06:40:54.849Z,992.32
2018-02-01T06:42:47.821Z,992.29
2018-02-01T06:43:47.881Z,992.26
2018-02-01T06:45:40.869Z,992.28
2018-02-01T06:46:40.903Z,992.25
2018-02-01T06:48:33.878Z,992.32
2018-02-01T06:49:33.953Z,992.34
2018-02-01T06:51:26.929Z,992.35
2018-02-01T06:52:26.960Z,992.30
2018-02-01T06:54:19.984Z,992.38
2018-02-01T06:55:19.999Z,992.39
2018-02-01T06:57:12.993Z,992.32
2018-02-01T06:58:13.032Z,992.36
2018-02-01T07:00:06.020Z,992.38
2018-02-01T07:01:06.053Z,992.34
2018-02-01T07:02:59.028Z,992.34
2018-02-01T07:03:59.082Z,992.41
2018-02-01T07:05:52.078Z,992.48
2018-02-01T07:06:52.113Z,992.48
2018-02-01T07:08:45.089Z,992.43
2018-02-01T07:09:45.141Z,992.45
2018-02-01T07:11:38.139Z,992.50
2018-02-01T07:12:38.168Z,992.48
2018-02-01T07:14:31.139Z,992.48
2018-02-01T07:15:31.193Z,992.50
2018-02-01T07:17:24.186Z,992.45
2018-02-01T07:18:24.219Z,992.45
2018-02-01T07:20:17.705Z,992.43
2018-02-01T07:21:17.756Z,992.44
2018-02-01T07:23:10.747Z,992.42
2018-02-01T07:24:10.780Z,992.45
2018-02-01T07:26:03.753Z,992.41
2018-02-01T07:27:03.806Z,992.44
2018-02-01T07:28:56.798Z,992.51
2018-02-01T07:29:56.832Z,992.53
2018-02-01T07:31:49.825Z,992.54
2018-02-01T07:32:49.891Z,992.55
2018-02-01T07:34:42.834Z,992.60
2018-02-01T07:35:42.886Z,992.60
2018-02-01T07:37:35.887Z,992.64
2018-02-01T07:38:35.919Z,992.64
2018-02-01T07:40:28.897Z,992.64
2018-02-01T07:41:28.947Z,992.66
2018-02-01T07:43:21.943Z,992.70
2018-02-01T07:44:21.977Z,992.67
2018-02-01T07:46:14.951Z,992.75
2018-02-01T07:47:15.004Z,992.73
2018-02-01T07:49:08.002Z,992.68
2018-02-01T07:50:08.034Z,992.70
2018-02-01T07:52:01.040Z,992.69
2018-02-01T07:53:01.064Z,992.65
2018-02-01T07:54:54.036Z,992.66
2018-02-01T07:55:54.090Z,992.61
2018-02-01T07:57:47.084Z,992.54
2018-02-01T07:58:47.115Z,992.57
2018-02-01T08:00:40.092Z,992.56
2018-02-01T08:01:40.148Z,992.51
2018-02-01T08:03:33.140Z,992.58
2018-02-01T08:04:33.176Z,992.56
2018-02-01T08:06:26.149Z,992.57
2018-02-01T08:07:26.203Z,992.60
2018-02-01T08:09:19.194Z,992.60
2018-02-01T08:10:19.228Z,992.56
2018-02-01T08:12:12.210Z,992.56
2018-02-01T08:13:12.259Z,992.57
2018-02-01T08:15:05.254Z,992.66
2018-02-01T08:16:05.286Z,992.69
2018-02-01T08:17:58.265Z,992.69
2018-02-01T08:18:58.314Z,992.71
2018-02-01T08:20:51.821Z,992.72
2018-02-01T08:21:51.851Z,992.62
2018-02-01T08:23:44.847Z,992.69
2018-02-01T08:24:44.879Z,992.71
2018-02-01T08:26:37.855Z,992.72
2018-02-01T08:27:37.908Z,992.74
2018-02-01T08:29:30.904Z,992.75
2018-02-01T08:30:30.937Z,992.79
2018-02-01T08:32:23.913Z,992.81
2018-02-01T08:33:23.966Z,992.80
2018-02-01T08:35:16.963Z,992.81
2018-02-01T08:36:16.996Z,992.83
2018-02-01T08:38:09.976Z,992.81
2018-02-01T08:39:10.031Z,992.83
2018-02-01T08:41:03.042Z,992.81
2018-02-01T08:42:03.079Z,992.80
2018-02-01T08:43:56.053Z,992.86
2018-02-01T08:44:56.146Z,992.89
2018-02-01T08:46:49.103Z,992.88
2018-02-01T08:47:49.137Z,992.96
2018-02-01T08:49:42.140Z,992.90
2018-02-01T08:50:42.175Z,992.93
2018-02-01T08:52:35.150Z,992.91
2018-02-01T08:53:35.206Z,992.88
2018-02-01T08:55:28.206Z,992.90
2018-02-01T08:56:28.238Z,992.92
2018-02-01T08:58:21.213Z,992.85
2018-02-01T08:59:21.269Z,992.92
2018-02-01T09:01:14.272Z,992.95
2018-02-01T09:02:14.308Z,992.89
2018-02-01T09:04:07.283Z,992.90
2018-02-01T09:05:07.341Z,992.95
2018-02-01T09:07:00.339Z,993.02
2018-02-01T09:08:00.375Z,992.95
2018-02-01T09:09:53.350Z,992.96
2018-02-01T09:10:53.405Z,992.95
2018-02-01T09:12:46.402Z,992.96
2018-02-01T09:13:46.440Z,992.94
2018-02-01T09:15:39.456Z,992.97
2018-02-01T09:16:39.468Z,992.95
2018-02-01T09:18:32.452Z,992.93
2018-02-01T09:19:32.505Z,992.96
2018-02-01T09:21:25.511Z,992.91
2018-02-01T09:22:25.542Z,992.92
2018-02-01T09:24:18.522Z,992.87
2018-02-01T09:25:18.628Z,992.90
2018-02-01T09:27:11.583Z,992.87
2018-02-01T09:28:11.619Z,992.90
2018-02-01T09:30:04.596Z,992.89
2018-02-01T09:31:04.651Z,992.86
2018-02-01T09:32:57.649Z,992.86
2018-02-01T09:33:57.690Z,992.82
2018-02-01T09:35:50.661Z,992.84
2018-02-01T09:36:50.717Z,992.87
2018-02-01T09:38:43.717Z,992.83
2018-02-01T09:39:43.755Z,992.91
2018-02-01T09:41:36.734Z,992.92
2018-02-01T09:42:36.785Z,992.93
2018-02-01T09:44:29.785Z,992.93
2018-02-01T09:45:29.817Z,992.96
2018-02-01T09:47:22.792Z,992.94
2018-02-01T09:48:22.849Z,992.95
2018-02-01T09:50:15.851Z,992.89
2018-02-01T09:51:15.888Z,992.93
2018-02-01T09:53:08.871Z,992.99
2018-02-01T09:54:08.926Z,993.00
2018-02-01T09:56:01.929Z,992.96
2018-02-01T09:57:01.965Z,992.92
2018-02-01T09:58:54.943Z,992.91
2018-02-01T09:59:54.998Z,992.90
2018-02-01T10:01:47.993Z,992.92
2018-02-01T10:02:48.028Z,992.96
2018-02-01T10:04:41.032Z,992.93
2018-02-01T10:05:41.069Z,992.88
2018-02-01T10:07:34.049Z,992.96
2018-02-01T10:08:34.107Z,992.90
2018-02-01T10:10:27.106Z,992.93
2018-02-01T10:11:27.144Z,992.89
2018-02-01T10:13:20.121Z,992.96
2018-02-01T10:14:20.179Z,992.95
2018-02-01T10:16:13.176Z,992.94
2018-02-01T10:17:13.213Z,992.94
2018-02-01T10:19:06.202Z,992.98
2018-02-01T10:20:06.248Z,992.86
2018-02-01T10:21:59.247Z,992.87
2018-02-01T10:22:59.280Z,992.93
2018-02-01T10:24:52.275Z,992.90
2018-02-01T10:25:52.313Z,992.89
2018-02-01T10:27:45.289Z,992.91
2018-02-01T10:28:45.344Z,992.95
2018-02-01T10:30:38.341Z,993.00
2018-02-01T10:31:38.432Z,992.92
2018-02-01T10:33:31.355Z,992.97
2018-02-01T10:34:31.410Z,992.96
2018-02-01T10:36:24.408Z,992.94
2018-02-01T10:37:24.442Z,992.95
2018-02-01T10:39:17.420Z,992.98
2018-02-01T10:40:17.479Z,992.99
2018-02-01T10:42:10.475Z,993.01
2018-02-01T10:43:10.529Z,993.00
2018-02-01T10:45:03.509Z,993.01
2018-02-01T10:46:03.551Z,993.02
2018-02-01T10:47:56.523Z,993.01
2018-02-01T10:48:56.580Z,993.04
2018-02-01T10:50:49.577Z,993.11
2018-02-01T10:51:49.614Z,993.04
2018-02-01T10:53:42.595Z,993.04
2018-02-01T10:54:42.646Z,993.02
2018-02-01T10:56:35.646Z,992.98
2018-02-01T10:57:35.679Z,993.05
2018-02-01T10:59:28.673Z,993.03
2018-02-01T11:00:28.719Z,993.07
2018-02-01T11:02:21.709Z,993.07
2018-02-01T11:03:21.745Z,993.05
2018-02-01T11:05:14.742Z,993.08
2018-02-01T11:06:14.778Z,992.99
2018-02-01T11:08:07.759Z,993.00
2018-02-01T11:09:07.811Z,992.97
2018-02-01T11:11:00.816Z,992.97
2018-02-01T11:12:00.851Z,993.01
2018-02-01T11:13:53.837Z,993.05
2018-02-01T11:14:53.882Z,993.05
2018-02-01T11:16:46.880Z,992.99
2018-02-01T11:17:46.919Z,993.06
2018-02-01T11:19:39.890Z,992.97
2018-02-01T11:20:39.946Z,992.99
2018-02-01T11:22:32.948Z,992.97
2018-02-01T11:23:32.986Z,992.91
2018-02-01T11:25:25.993Z,992.93
2018-02-01T11:26:26.023Z,992.94
2018-02-01T11:28:19.006Z,992.95
2018-02-01T11:29:19.056Z,992.98
2018-02-01T11:31:12.051Z,993.00
2018-02-01T11:32:12.087Z,993.00
2018-02-01T11:34:05.062Z,992.97
2018-02-01T11:35:05.121Z,993.00
2018-02-01T11:36:58.127Z,993.00
2018-02-01T11:37:58.161Z,993.00
2018-02-01T11:39:51.139Z,992.96
2018-02-01T11:40:51.192Z,993.01
2018-02-01T11:42:44.199Z,992.97
2018-02-01T11:43:44.224Z,993.00
2018-02-01T11:45:37.225Z,992.99
2018-02-01T11:46:37.254Z,993.00
2018-02-01T11:48:30.239Z,992.95
2018-02-01T11:49:30.290Z,992.95
2018-02-01T11:51:23.288Z,992.97
2018-02-01T11:52:23.325Z,992.93
2018-02-01T11:54:16.298Z,992.93
2018-02-01T11:55:16.356Z,992.95
2018-02-01T11:57:09.350Z,992.87
2018-02-01T11:58:09.386Z,992.91
2018-02-01T12:00:02.364Z,992.94
2018-02-01T12:01:02.418Z,992.95
2018-02-01T12:02:55.412Z,992.92
2018-02-01T12:03:55.448Z,992.93
2018-02-01T12:05:48.450Z,992.78
2018-02-01T12:06:48.483Z,992.79
2018-02-01T12:08:41.466Z,992.80
2018-02-01T12:09:41.514Z,992.70
2018-02-01T12:11:34.511Z,992.75
2018-02-01T12:12:34.548Z,992.79
2018-02-01T12:14:27.527Z,992.70
2018-02-01T12:15:27.588Z,992.76
2018-02-01T12:17:20.585Z,992.71
2018-02-01T12:18:20.618Z,992.72
2018-02-01T12:20:13.656Z,992.71
2018-02-01T12:21:13.689Z,992.75
2018-02-01T12:23:06.652Z,992.65
2018-02-01T12:24:06.691Z,992.66
2018-02-01T12:25:59.693Z,992.67
2018-02-01T12:26:59.729Z,992.69
2018-02-01T12:28:52.771Z,992.68
2018-02-01T12:29:52.829Z,992.64
2018-02-01T12:31:45.825Z,992.58
2018-02-01T12:32:45.861Z,992.55
2018-02-01T12:34:38.853Z,992.54
2018-02-01T12:35:38.902Z,992.56
2018-02-01T12:37:31.900Z,992.57
2018-02-01T12:38:31.936Z,992.56
2018-02-01T12:40:24.921Z,992.56
2018-02-01T12:41:24.995Z,992.54
2018-02-01T12:43:17.976Z,992.51
2018-02-01T12:44:18.012Z,992.50
2018-02-01T12:46:11.012Z,992.44
2018-02-01T12:47:11.044Z,992.49
2018-02-01T12:49:04.035Z,992.47
2018-02-01T12:50:04.098Z,992.52
2018-02-01T12:51:57.084Z,992.47
2018-02-01T12:52:57.120Z,992.44
2018-02-01T12:54:50.104Z,992.47
2018-02-01T12:55:50.156Z,992.42
2018-02-01T12:57:43.153Z,992.44
2018-02-01T12:58:43.187Z,992.39
2018-02-01T13:00:36.171Z,992.41
2018-02-01T13:01:36.220Z,992.34
2018-02-01T13:03:29.222Z,992.35
2018-02-01T13:04:29.259Z,992.36
2018-02-01T13:06:22.261Z,992.39
2018-02-01T13:07:22.298Z,992.43
2018-02-01T13:09:15.270Z,992.41
2018-02-01T13:10:15.326Z,992.43
2018-02-01T13:12:08.325Z,992.45
2018-02-01T13:13:08.359Z,992.49
2018-02-01T13:15:01.376Z,992.55
2018-02-01T13:16:01.494Z,992.58
2018-02-01T13:17:54.403Z,992.56
2018-02-01T13:18:54.461Z,992.59
2018-02-01T13:20:47.493Z,992.52
2018-02-01T13:21:47.510Z,992.57
2018-02-01T13:23:40.491Z,992.54
2018-02-01T13:24:40.509Z,992.54
2018-02-01T13:26:33.514Z,992.52
2018-02-01T13:27:33.541Z,992.51
2018-02-01T13:29:26.521Z,992.49
2018-02-01T13:30:26.612Z,992.48
2018-02-01T13:32:19.616Z,992.47
2018-02-01T13:33:19.646Z,992.53
2018-02-01T13:35:12.591Z,992.55
2018-02-01T13:36:12.648Z,992.52
2018-02-01T13:38:05.643Z,992.52
2018-02-01T13:39:05.687Z,992.51
2018-02-01T13:40:58.727Z,992.52
2018-02-01T13:41:58.710Z,992.49
2018-02-01T13:43:51.712Z,992.52
2018-02-01T13:44:51.742Z,992.47
2018-02-01T13:46:44.745Z,992.47
2018-02-01T13:47:44.780Z,992.48
2018-02-01T13:49:37.783Z,992.43
2018-02-01T13:50:37.811Z,992.42
2018-02-01T13:52:30.807Z,992.40
2018-02-01T13:53:30.842Z,992.36
2018-02-01T13:55:23.826Z,992.33
2018-02-01T13:56:23.872Z,992.34
2018-02-01T13:58:16.870Z,992.31
2018-02-01T13:59:16.908Z,992.32
2018-02-01T14:01:09.885Z,992.28
2018-02-01T14:02:10.003Z,992.28
2018-02-01T14:04:02.939Z,992.28
2018-02-01T14:05:02.972Z,992.25
2018-02-01T14:06:55.996Z,992.26
2018-02-01T14:07:56.012Z,992.31
2018-02-01T14:09:48.993Z,992.31
2018-02-01T14:10:49.041Z,992.31
2018-02-01T14:12:42.048Z,992.32
2018-02-01T14:13:42.076Z,992.29
2018-02-01T14:15:35.059Z,992.31
2018-02-01T14:16:35.108Z,992.32
2018-02-01T14:18:28.111Z,992.36
2018-02-01T14:19:28.148Z,992.32
2018-02-01T14:21:21.123Z,992.38
2018-02-01T14:22:21.182Z,992.34
2018-02-01T14:24:14.175Z,992.34
2018-02-01T14:25:14.218Z,992.33
2018-02-01T14:27:07.207Z,992.35
2018-02-01T14:28:07.244Z,992.36
2018-02-01T14:30:00.267Z,992.35
2018-02-01T14:31:00.276Z,992.40
2018-02-01T14:32:53.277Z,992.41
2018-02-01T14:33:53.309Z,992.38
2018-02-01T14:35:46.290Z,992.39
2018-02-01T14:36:46.341Z,992.39
2018-02-01T14:38:39.338Z,992.37
2018-02-01T14:39:39.422Z,992.38
2018-02-01T14:41:32.349Z,992.34
2018-02-01T14:42:32.405Z,992.34
2018-02-01T14:44:25.401Z,992.30
2018-02-01T14:45:25.437Z,992.37
2018-02-01T14:47:18.434Z,992.39
2018-02-01T14:48:18.469Z,992.36
2018-02-01T14:50:11.446Z,992.36
2018-02-01T14:51:11.499Z,992.38
2018-02-01T14:53:04.527Z,992.39
2018-02-01T14:54:04.588Z,992.40
2018-02-01T14:55:57.515Z,992.47
2018-02-01T14:56:57.569Z,992.46
2018-02-01T14:58:50.568Z,992.47
2018-02-01T14:59:50.604Z,992.45
2018-02-01T15:01:43.583Z,992.45
2018-02-01T15:02:43.636Z,992.43
2018-02-01T15:04:36.634Z,992.46
2018-02-01T15:05:36.680Z,992.47
2018-02-01T15:07:29.727Z,992.44
2018-02-01T15:08:29.713Z,992.44
2018-02-01T15:10:22.686Z,992.43
2018-02-01T15:11:22.742Z,992.52
2018-02-01T15:13:15.740Z,992.57
2018-02-01T15:14:15.782Z,992.62
2018-02-01T15:16:08.777Z,992.56
2018-02-01T15:17:08.805Z,992.57
2018-02-01T15:19:01.807Z,992.62
2018-02-01T15:20:01.842Z,992.64
2018-02-01T15:21:54.813Z,992.68
2018-02-01T15:22:54.870Z,992.64
2018-02-01T15:24:47.867Z,992.78
2018-02-01T15:25:47.903Z,992.71
2018-02-01T15:27:40.898Z,992.77
2018-02-01T15:28:40.935Z,992.76
2018-02-01T15:30:33.923Z,992.84
2018-02-01T15:31:33.971Z,992.82
2018-02-01T15:33:26.968Z,992.83
2018-02-01T15:34:27.004Z,992.84
2018-02-01T15:36:19.996Z,992.90
2018-02-01T15:37:20.036Z,992.88
2018-02-01T15:39:13.033Z,992.95
2018-02-01T15:40:13.066Z,992.93
2018-02-01T15:42:06.042Z,992.96
2018-02-01T15:43:06.114Z,992.95
2018-02-01T15:44:59.097Z,992.99
2018-02-01T15:45:59.132Z,992.99
2018-02-01T15:47:52.128Z,992.98
2018-02-01T15:48:52.163Z,992.99
2018-02-01T15:50:45.152Z,992.96
2018-02-01T15:51:45.195Z,992.99
2018-02-01T15:53:38.192Z,993.03
2018-02-01T15:54:38.228Z,992.96
2018-02-01T15:56:31.208Z,992.96
2018-02-01T15:57:31.261Z,993.01
2018-02-01T15:59:24.265Z,992.99
2018-02-01T16:00:24.299Z,992.99
2018-02-01T16:02:17.288Z,992.98
2018-02-01T16:03:17.325Z,993.01
2018-02-01T16:05:10.346Z,993.01
2018-02-01T16:06:10.368Z,993.03
2018-02-01T16:08:03.368Z,993.04
2018-02-01T16:09:03.402Z,993.04
2018-02-01T16:10:56.386Z,993.08
2018-02-01T16:11:56.434Z,993.09
2018-02-01T16:13:49.431Z,993.08
2018-02-01T16:14:49.466Z,993.14
2018-02-01T16:16:42.479Z,993.15
2018-02-01T16:17:42.497Z,993.16
2018-02-01T16:19:35.493Z,993.20
2018-02-01T16:20:35.528Z,993.21
2018-02-01T16:22:28.514Z,993.24
2018-02-01T16:23:28.571Z,993.32
2018-02-01T16:25:21.566Z,993.28
2018-02-01T16:26:21.601Z,993.31
2018-02-01T16:28:14.598Z,993.31
2018-02-01T16:29:14.633Z,993.33
2018-02-01T16:31:07.607Z,993.36
2018-02-01T16:32:07.662Z,993.40
2018-02-01T16:34:00.662Z,993.38
2018-02-01T16:35:00.694Z,993.39
2018-02-01T16:36:53.671Z,993.47
2018-02-01T16:37:53.726Z,993.47
2018-02-01T16:39:46.764Z,993.44
2018-02-01T16:40:46.798Z,993.44
2018-02-01T16:42:39.774Z,993.46
2018-02-01T16:43:39.831Z,993.41
2018-02-01T16:45:32.827Z,993.37
2018-02-01T16:46:32.864Z,993.41
2018-02-01T16:48:25.895Z,993.42
2018-02-01T16:49:25.929Z,993.45
2018-02-01T16:51:18.921Z,993.46
2018-02-01T16:52:18.960Z,993.47
2018-02-01T16:54:11.956Z,993.52
2018-02-01T16:55:11.991Z,993.52
2018-02-01T16:57:04.971Z,993.49
2018-02-01T16:58:05.019Z,993.55
2018-02-01T16:59:58.014Z,993.58
2018-02-01T17:00:58.050Z,993.53
2018-02-01T17:02:51.023Z,993.62
2018-02-01T17:03:51.078Z,993.69
2018-02-01T17:05:44.077Z,993.74
2018-02-01T17:06:44.112Z,993.67
2018-02-01T17:08:37.109Z,993.76
2018-02-01T17:09:37.143Z,993.74
2018-02-01T17:11:30.126Z,993.74
2018-02-01T17:12:30.180Z,993.76
2018-02-01T17:14:23.186Z,993.80
2018-02-01T17:15:23.215Z,993.84
2018-02-01T17:17:16.186Z,993.83
2018-02-01T17:18:17.217Z,993.82
2018-02-01T17:20:09.242Z,993.81
2018-02-01T17:21:09.282Z,993.81
2018-02-01T17:23:02.255Z,993.86
2018-02-01T17:24:02.310Z,993.81
2018-02-01T17:25:55.310Z,993.87
2018-02-01T17:26:55.339Z,993.90
2018-02-01T17:28:48.334Z,993.89
2018-02-01T17:29:48.368Z,993.89
2018-02-01T17:31:41.347Z,993.93
2018-02-01T17:32:41.420Z,993.87
2018-02-01T17:34:34.397Z,993.89
2018-02-01T17:35:34.472Z,993.86
2018-02-01T17:37:27.589Z,993.85
2018-02-01T17:38:27.458Z,993.84
2018-02-01T17:40:20.457Z,993.87
2018-02-01T17:41:20.495Z,993.91
2018-02-01T17:43:13.472Z,993.92
2018-02-01T17:44:13.524Z,993.97
2018-02-01T17:46:06.527Z,993.93
2018-02-01T17:47:06.558Z,993.99
2018-02-01T17:48:59.558Z,993.95
2018-02-01T17:49:59.589Z,993.94
2018-02-01T17:51:54.478Z,993.98
2018-02-01T17:52:54.528Z,993.94
2018-02-01T17:54:47.522Z,993.99
2018-02-01T17:55:47.564Z,993.99
2018-02-01T17:57:40.542Z,994.00
2018-02-01T17:58:40.589Z,994.00